Time;durP1;ratioP1;P1;durP2;ratioP2;P2;SDS_P1;SDS_P2;PMS_P1;PMS_P2;Temp;Humidity;BMP_temperature;BMP_pressure;BME280_temperature;BME280_humidity;BME280_pressure;Samples;Min_cycle;Max_cycle;Signal;HPM_P1;HPM_P2
2022/07/11 00:01:43;;;;;;;2.70;1.50;;;21.60;91.90;;;;;;5119607;27;20428;-73
2022/07/11 00:04:09;;;;;;;1.55;1.05;;;21.60;91.90;;;;;;5118359;27;20051;-72
2022/07/11 00:06:35;;;;;;;1.25;0.98;;;21.60;91.90;;;;;;5118500;27;20039;-73
2022/07/11 00:09:01;;;;;;;1.77;1.13;;;21.60;91.90;;;;;;5118906;27;20039;-72
2022/07/11 00:11:26;;;;;;;8.15;1.10;;;21.60;92.00;;;;;;5120671;27;20455;-72
2022/07/11 00:13:52;;;;;;;1.48;0.98;;;21.50;92.00;;;;;;5121167;27;20048;-73
2022/07/11 00:16:18;;;;;;;1.10;0.88;;;21.50;92.00;;;;;;5101154;27;20051;-72
2022/07/11 00:18:44;;;;;;;3.45;2.00;;;21.50;92.30;;;;;;5118936;27;20084;-72
2022/07/11 00:21:10;;;;;;;1.73;1.48;;;21.50;92.10;;;;;;5120647;27;20054;-72
2022/07/11 00:23:36;;;;;;;3.28;1.60;;;21.40;92.10;;;;;;5121341;27;20082;-73
2022/07/11 00:26:03;;;;;;;1.55;1.08;;;21.40;92.20;;;;;;5119874;27;21123;-73
2022/07/11 00:28:29;;;;;;;3.25;1.60;;;21.40;92.20;;;;;;5117828;27;20053;-72
2022/07/11 00:30:54;;;;;;;6.65;1.52;;;21.40;92.20;;;;;;5118833;27;20058;-72
2022/07/11 00:33:20;;;;;;;2.65;1.20;;;21.30;92.20;;;;;;5120628;27;20516;-72
2022/07/11 00:35:46;;;;;;;2.88;1.50;;;21.30;92.30;;;;;;5120606;27;20043;-72
2022/07/11 00:38:12;;;;;;;2.55;1.10;;;21.30;92.30;;;;;;5117591;27;21061;-73
2022/07/11 00:40:38;;;;;;;1.50;0.90;;;21.30;92.40;;;;;;5118686;27;20047;-72
2022/07/11 00:43:04;;;;;;;1.73;1.08;;;21.30;92.40;;;;;;5121292;27;20062;-73
2022/07/11 00:45:30;;;;;;;1.85;1.20;;;21.20;92.40;;;;;;5119726;27;20047;-72
2022/07/11 00:47:56;;;;;;;1.98;1.20;;;21.20;92.40;;;;;;5121598;27;20043;-72
2022/07/11 00:50:23;;;;;;;1.55;1.10;;;21.20;92.50;;;;;;5121578;27;20481;-72
2022/07/11 00:52:51;;;;;;;4.13;1.30;;;21.20;92.50;;;;;;5124048;27;20040;-72
2022/07/11 00:55:17;;;;;;;3.25;1.50;;;21.20;92.60;;;;;;5117014;27;20035;-72
2022/07/11 00:57:43;;;;;;;1.90;1.10;;;21.10;92.60;;;;;;5119092;27;20437;-72
2022/07/11 01:00:11;;;;;;;1.92;0.90;;;21.10;92.60;;;;;;5126291;27;20039;-72
2022/07/11 01:02:36;;;;;;;2.03;1.25;;;21.10;92.60;;;;;;5121694;27;20040;-72
2022/07/11 01:05:02;;;;;;;2.42;1.25;;;21.10;92.70;;;;;;5123968;27;20043;-73
2022/07/11 01:07:30;;;;;;;2.95;1.40;;;21.10;92.70;;;;;;5122654;27;20055;-72
2022/07/11 01:09:56;;;;;;;3.00;1.27;;;21.10;92.70;;;;;;5123364;27;20039;-73
2022/07/11 01:12:22;;;;;;;1.40;1.10;;;21.10;92.70;;;;;;5121340;27;20162;-73
2022/07/11 01:14:55;;;;;;;3.78;1.13;;;21.10;92.70;;;;;;5123595;27;20118;-72
2022/07/11 01:17:20;;;;;;;1.58;1.10;;;21.00;92.70;;;;;;5122664;27;20059;-73
2022/07/11 01:19:46;;;;;;;2.08;1.30;;;21.00;92.80;;;;;;5124385;27;20039;-72
2022/07/11 01:22:14;;;;;;;2.78;1.17;;;21.00;92.80;;;;;;5121141;27;20074;-72
2022/07/11 01:24:42;;;;;;;3.63;1.65;;;20.90;92.80;;;;;;5123566;27;20108;-73
2022/07/11 01:27:09;;;;;;;1.50;0.93;;;21.00;92.80;;;;;;5123651;27;20040;-72
2022/07/11 01:29:35;;;;;;;3.80;1.20;;;20.90;92.80;;;;;;5125495;27;20508;-72
2022/07/11 01:32:00;;;;;;;2.53;1.40;;;20.90;92.90;;;;;;5123390;27;20048;-73
2022/07/11 01:34:26;;;;;;;1.52;1.10;;;20.90;92.90;;;;;;5123855;27;20421;-72
2022/07/11 01:36:52;;;;;;;1.92;1.00;;;20.90;92.90;;;;;;5106010;27;20118;-73
2022/07/11 01:39:18;;;;;;;2.03;1.08;;;20.80;93.00;;;;;;5126206;27;20079;-72
2022/07/11 01:41:43;;;;;;;2.58;1.30;;;20.80;93.00;;;;;;5121186;27;20058;-72
2022/07/11 01:44:09;;;;;;;3.80;1.42;;;20.80;93.00;;;;;;5125337;27;20044;-73
2022/07/11 01:46:35;;;;;;;3.55;1.67;;;20.80;93.10;;;;;;5122595;27;20054;-72
2022/07/11 01:49:01;;;;;;;3.03;1.38;;;20.80;93.10;;;;;;5124969;27;20035;-72
2022/07/11 01:51:29;;;;;;;2.53;1.35;;;20.70;93.10;;;;;;5123073;27;20047;-73
2022/07/11 01:53:55;;;;;;;2.08;1.25;;;20.70;93.10;;;;;;5124038;27;20473;-73
2022/07/11 01:56:27;;;;;;;2.28;1.15;;;20.70;93.20;;;;;;5106182;27;20595;-73
2022/07/11 01:58:52;;;;;;;;;;;20.70;93.20;;;;;;5121655;27;20984;-72
2022/07/11 02:01:18;;;;;;;3.20;1.38;;;20.70;93.20;;;;;;5123588;27;19931;-72
2022/07/11 02:03:44;;;;;;;2.00;0.98;;;20.60;93.20;;;;;;5121511;27;20082;-73
2022/07/11 02:06:10;;;;;;;2.75;1.08;;;20.60;93.30;;;;;;5122437;27;20061;-72
2022/07/11 02:08:36;;;;;;;3.15;1.17;;;20.50;93.30;;;;;;5120110;27;20059;-72
2022/07/11 02:11:02;;;;;;;2.15;1.33;;;20.50;93.30;;;;;;5120221;27;20035;-73
2022/07/11 02:13:29;;;;;;;1.42;1.02;;;20.50;93.40;;;;;;5123388;27;20515;-72
2022/07/11 02:15:58;;;;;;;2.70;1.33;;;20.40;93.40;;;;;;5121453;27;20040;-72
2022/07/11 02:18:24;;;;;;;2.97;1.58;;;20.40;93.50;;;;;;5125616;27;20040;-73
2022/07/11 02:20:50;;;;;;;1.52;0.85;;;20.40;93.50;;;;;;5123635;27;20501;-73
2022/07/11 02:23:17;;;;;;;2.22;0.98;;;20.40;93.50;;;;;;5121332;27;20051;-73
2022/07/11 02:25:43;;;;;;;3.83;1.27;;;20.40;93.50;;;;;;5123518;27;20031;-73
2022/07/11 02:28:10;;;;;;;1.30;1.10;;;20.40;93.60;;;;;;5119321;27;20090;-73
2022/07/11 02:30:37;;;;;;;3.58;1.52;;;20.40;93.60;;;;;;5123049;27;20070;-73
2022/07/11 02:33:03;;;;;;;6.05;1.60;;;20.40;93.70;;;;;;5121951;27;20039;-73
2022/07/11 02:35:29;;;;;;;5.65;2.22;;;20.40;93.70;;;;;;5124291;27;20482;-72
2022/07/11 02:37:55;;;;;;;3.42;1.90;;;20.30;93.70;;;;;;5119444;27;21033;-72
2022/07/11 02:40:21;;;;;;;5.10;2.85;;;20.30;93.80;;;;;;5122826;27;20130;-73
2022/07/11 02:42:47;;;;;;;3.50;2.17;;;20.30;93.80;;;;;;5118847;27;20984;-72
2022/07/11 02:45:13;;;;;;;6.28;2.30;;;20.30;93.80;;;;;;5105688;27;20516;-73
2022/07/11 02:47:40;;;;;;;5.57;2.35;;;20.30;93.80;;;;;;5121906;27;20488;-73
2022/07/11 02:50:11;;;;;;;3.55;1.98;;;20.30;93.90;;;;;;5123506;27;20085;-72
2022/07/11 02:52:38;;;;;;;2.63;1.63;;;20.30;93.90;;;;;;5125308;27;20042;-73
2022/07/11 02:55:04;;;;;;;2.55;1.55;;;20.20;93.90;;;;;;5120207;27;20254;-72
2022/07/11 02:57:30;;;;;;;3.55;1.80;;;20.20;93.90;;;;;;5118519;27;20499;-72
2022/07/11 02:59:56;;;;;;;6.20;2.08;;;20.20;94.00;;;;;;5122989;27;20054;-73
2022/07/11 03:02:22;;;;;;;2.55;1.63;;;20.20;94.00;;;;;;5119692;27;20479;-72
2022/07/11 03:04:48;;;;;;;4.72;1.50;;;20.10;94.00;;;;;;5123571;27;20051;-72
2022/07/11 03:07:14;;;;;;;3.15;1.50;;;20.10;94.10;;;;;;5121053;27;20062;-73
2022/07/11 03:09:40;;;;;;;6.30;1.77;;;20.10;94.10;;;;;;5121048;27;20616;-72
2022/07/11 03:12:06;;;;;;;2.35;1.42;;;20.10;94.10;;;;;;5118396;27;20051;-72
2022/07/11 03:14:31;;;;;;;2.85;2.08;;;20.10;94.20;;;;;;5120536;27;20043;-72
2022/07/11 03:16:57;;;;;;;2.47;1.40;;;20.10;94.20;;;;;;5105161;27;20130;-72
2022/07/11 03:19:23;;;;;;;3.50;1.35;;;20.00;94.30;;;;;;5124278;27;20445;-73
2022/07/11 03:21:48;;;;;;;2.50;1.20;;;20.10;94.30;;;;;;5121850;27;21317;-72
2022/07/11 03:24:14;;;;;;;2.50;1.55;;;20.00;94.30;;;;;;5122218;27;20471;-72
2022/07/11 03:26:40;;;;;;;8.20;2.97;;;20.00;94.50;;;;;;5122232;27;20130;-73
2022/07/11 03:29:07;;;;;;;3.63;1.10;;;20.00;94.40;;;;;;5123235;27;20638;-73
2022/07/11 03:31:33;;;;;;;4.15;2.60;;;20.00;94.40;;;;;;5123480;27;20043;-73
2022/07/11 03:33:59;;;;;;;4.10;1.65;;;20.00;94.40;;;;;;5121995;27;20060;-73
2022/07/11 03:36:26;;;;;;;1.90;1.23;;;20.00;94.40;;;;;;5119685;27;20771;-72
2022/07/11 03:38:51;;;;;;;2.13;1.17;;;20.00;94.40;;;;;;5121146;27;20074;-72
2022/07/11 03:41:17;;;;;;;2.67;1.00;;;20.00;94.50;;;;;;5120886;27;20046;-73
2022/07/11 03:43:43;;;;;;;2.67;1.17;;;19.90;94.50;;;;;;5124644;27;20048;-73
2022/07/11 03:46:09;;;;;;;5.80;1.42;;;19.90;94.50;;;;;;5120804;27;20039;-73
2022/07/11 03:48:35;;;;;;;1.77;1.00;;;19.90;94.50;;;;;;5118871;27;20047;-73
2022/07/11 03:51:00;;;;;;;3.17;1.48;;;19.90;94.50;;;;;;5119189;27;20042;-71
2022/07/11 03:53:26;;;;;;;4.25;1.20;;;19.90;94.60;;;;;;5121655;27;20408;-73
2022/07/11 03:55:52;;;;;;;1.77;1.25;;;19.90;94.60;;;;;;5121065;27;20042;-73
2022/07/11 03:58:18;;;;;;;2.20;1.30;;;19.90;94.60;;;;;;5113999;27;20071;-72
2022/07/11 04:00:44;;;;;;;3.47;1.98;;;19.90;94.60;;;;;;5117065;27;20455;-74
2022/07/11 04:03:10;;;;;;;1.85;1.08;;;19.90;94.60;;;;;;5120493;27;20043;-73
2022/07/11 04:05:36;;;;;;;1.70;1.42;;;19.90;94.60;;;;;;5121577;27;20560;-73
2022/07/11 04:08:02;;;;;;;1.85;1.23;;;19.80;94.60;;;;;;5120833;27;20056;-73
2022/07/11 04:10:28;;;;;;;3.45;1.55;;;19.80;94.70;;;;;;5122264;27;20111;-73
2022/07/11 04:12:53;;;;;;;3.42;1.17;;;19.80;94.70;;;;;;5114132;27;20043;-73
2022/07/11 04:15:19;;;;;;;3.38;1.38;;;19.80;94.70;;;;;;5120726;27;20438;-73
2022/07/11 04:17:45;;;;;;;4.38;1.45;;;19.70;94.70;;;;;;5119863;27;20043;-74
2022/07/11 04:20:11;;;;;;;3.05;1.10;;;19.80;94.80;;;;;;5120108;27;20502;-76
2022/07/11 04:22:37;;;;;;;5.00;1.30;;;19.80;94.80;;;;;;5117137;27;20039;-75
2022/07/11 04:25:03;;;;;;;3.78;1.83;;;19.70;94.80;;;;;;5122396;27;20055;-73
2022/07/11 04:27:29;;;;;;;3.75;1.20;;;19.70;94.80;;;;;;5120957;27;20051;-73
2022/07/11 04:29:57;;;;;;;2.05;1.30;;;19.70;95.10;;;;;;5118278;27;20050;-73
2022/07/11 04:32:23;;;;;;;2.50;1.27;;;19.70;94.90;;;;;;5120541;27;20039;-73
2022/07/11 04:34:49;;;;;;;1.30;1.05;;;19.70;94.90;;;;;;5115277;27;20054;-73
2022/07/11 04:37:14;;;;;;;1.60;1.05;;;19.70;94.90;;;;;;5119666;27;20044;-73
2022/07/11 04:39:40;;;;;;;4.18;1.50;;;19.60;94.90;;;;;;5116943;27;20039;-74
2022/07/11 04:42:06;;;;;;;3.40;1.52;;;19.60;94.90;;;;;;5117582;27;20191;-74
2022/07/11 04:44:33;;;;;;;2.72;1.27;;;19.60;95.00;;;;;;5119185;27;20035;-74
2022/07/11 04:46:58;;;;;;;3.72;1.73;;;19.60;95.10;;;;;;5116456;27;20066;-75
2022/07/11 04:49:24;;;;;;;1.95;1.20;;;19.60;95.10;;;;;;5112245;27;20043;-75
2022/07/11 04:51:50;;;;;;;1.65;1.17;;;19.60;95.10;;;;;;5119626;27;20051;-76
2022/07/11 04:54:16;;;;;;;9.23;3.17;;;19.60;95.10;;;;;;5121499;27;20057;-76
2022/07/11 04:56:42;;;;;;;2.15;1.30;;;19.60;95.20;;;;;;5115843;27;21162;-74
2022/07/11 04:59:08;;;;;;;6.63;1.50;;;19.60;95.20;;;;;;5115021;27;20043;-74
2022/07/11 05:01:34;;;;;;;5.07;1.70;;;19.70;95.20;;;;;;5116691;27;20043;-74
2022/07/11 05:04:00;;;;;;;3.67;1.25;;;19.60;95.20;;;;;;5117726;27;21422;-75
2022/07/11 05:06:26;;;;;;;7.85;1.58;;;19.60;95.30;;;;;;5115512;27;20791;-74
2022/07/11 05:08:54;;;;;;;2.28;1.30;;;19.70;95.30;;;;;;5105064;27;20067;-74
2022/07/11 05:11:20;;;;;;;2.72;1.27;;;19.60;95.30;;;;;;5124734;27;20031;-74
2022/07/11 05:13:46;;;;;;;3.90;1.10;;;19.60;95.30;;;;;;5123090;27;20065;-74
2022/07/11 05:16:12;;;;;;;3.30;1.67;;;19.60;95.30;;;;;;5124926;27;20553;-75
2022/07/11 05:18:38;;;;;;;2.20;1.42;;;19.60;95.40;;;;;;5126788;27;20040;-74
2022/07/11 05:21:05;;;;;;;4.05;1.20;;;19.60;95.40;;;;;;5124443;27;20051;-74
2022/07/11 05:23:30;;;;;;;4.45;1.58;;;19.60;95.40;;;;;;5125445;27;20046;-74
2022/07/11 05:25:56;;;;;;;4.38;1.48;;;19.60;95.50;;;;;;5124073;27;20055;-75
2022/07/11 05:28:22;;;;;;;1.95;1.40;;;19.60;95.60;;;;;;5124545;27;20138;-75
2022/07/11 05:30:48;;;;;;;4.00;1.30;;;19.60;95.60;;;;;;5125078;27;20134;-74
2022/07/11 05:33:14;;;;;;;2.00;1.25;;;19.60;95.60;;;;;;5125241;27;20039;-74
2022/07/11 05:35:40;;;;;;;2.03;1.52;;;19.60;95.60;;;;;;5124838;27;20040;-74
2022/07/11 05:38:05;;;;;;;2.13;1.30;;;19.60;95.60;;;;;;5123273;27;20118;-74
2022/07/11 05:40:31;;;;;;;3.45;1.35;;;19.70;95.70;;;;;;5123737;27;20511;-75
2022/07/11 05:42:57;;;;;;;1.35;1.00;;;19.70;95.70;;;;;;5122068;27;20044;-75
2022/07/11 05:45:23;;;;;;;2.83;1.50;;;19.70;95.70;;;;;;5123858;27;20039;-74
2022/07/11 05:47:48;;;;;;;3.25;1.48;;;19.70;95.70;;;;;;5128824;27;20040;-74
2022/07/11 05:50:14;;;;;;;2.08;1.17;;;19.70;95.70;;;;;;5126388;27;20048;-74
2022/07/11 05:52:40;;;;;;;5.05;1.13;;;19.70;95.70;;;;;;5127855;27;20088;-74
2022/07/11 05:55:06;;;;;;;3.17;1.60;;;19.70;95.70;;;;;;5127173;27;20484;-74
2022/07/11 05:57:32;;;;;;;3.45;1.27;;;19.80;95.80;;;;;;5129195;27;20039;-75
2022/07/11 05:59:58;;;;;;;3.83;1.40;;;19.80;95.80;;;;;;5127818;27;20066;-74
2022/07/11 06:02:23;;;;;;;4.57;1.30;;;19.80;95.80;;;;;;5128814;27;20044;-75
2022/07/11 06:04:49;;;;;;;2.85;1.10;;;19.80;95.80;;;;;;5128869;27;20042;-74
2022/07/11 06:08:40;;;;;;;8.88;1.52;;;19.80;95.80;;;;;;5127921;27;20035;-74
2022/07/11 06:10:01;;;;;;;2.05;1.10;;;19.80;95.90;;;;;;5128320;27;20100;-74
2022/07/11 06:12:26;;;;;;;2.25;1.20;;;19.80;95.90;;;;;;5128011;27;20409;-75
2022/07/11 06:14:52;;;;;;;2.30;1.10;;;19.90;95.90;;;;;;5126381;27;20048;-75
2022/07/11 06:17:18;;;;;;;1.70;1.20;;;19.90;95.90;;;;;;5127145;27;20040;-75
2022/07/11 06:19:43;;;;;;;1.52;1.17;;;19.90;95.90;;;;;;5127532;27;20151;-75
2022/07/11 06:22:09;;;;;;;2.78;1.67;;;19.90;95.90;;;;;;5128351;27;20281;-74
2022/07/11 06:24:35;;;;;;;3.70;1.58;;;19.90;95.90;;;;;;5128513;27;20502;-74
2022/07/11 06:27:01;;;;;;;5.72;1.75;;;19.90;95.90;;;;;;5127181;27;20161;-74
2022/07/11 06:29:27;;;;;;;5.03;2.15;;;19.90;96.00;;;;;;5127920;27;20051;-74
2022/07/11 06:31:53;;;;;;;2.95;1.50;;;20.00;96.10;;;;;;5126398;27;20039;-75
2022/07/11 06:34:19;;;;;;;2.85;1.40;;;20.00;96.00;;;;;;5126847;27;20047;-75
2022/07/11 06:36:44;;;;;;;1.95;1.27;;;20.00;96.00;;;;;;5126213;27;20043;-74
2022/07/11 06:39:10;;;;;;;3.30;1.52;;;20.00;96.10;;;;;;5126497;27;20520;-75
2022/07/11 06:41:36;;;;;;;1.90;1.17;;;20.00;96.10;;;;;;5125266;27;20048;-74
2022/07/11 06:44:02;;;;;;;2.70;1.35;;;20.10;96.20;;;;;;5126790;27;20043;-74
2022/07/11 06:46:28;;;;;;;2.67;1.50;;;20.10;96.10;;;;;;5126352;27;20046;-75
2022/07/11 06:48:54;;;;;;;3.58;1.48;;;20.10;96.10;;;;;;5109439;27;20112;-75
2022/07/11 06:51:21;;;;;;;4.03;1.50;;;20.20;96.20;;;;;;5127532;27;20039;-74
2022/07/11 06:53:47;;;;;;;5.28;1.58;;;20.20;96.20;;;;;;5127592;27;20064;-75
2022/07/11 06:56:12;;;;;;;11.85;3.03;;;20.20;96.20;;;;;;5110118;27;20043;-74
2022/07/11 06:58:38;;;;;;;9.55;2.65;;;20.20;96.20;;;;;;5124988;27;20035;-74
2022/07/11 07:01:05;;;;;;;2.70;1.40;;;20.30;96.20;;;;;;5126133;27;20051;-75
2022/07/11 07:03:34;;;;;;;6.35;1.73;;;20.30;96.10;;;;;;5127162;27;20042;-74
2022/07/11 07:06:01;;;;;;;1.98;1.23;;;20.30;96.10;;;;;;5125860;27;20031;-74
2022/07/11 07:08:29;;;;;;;2.72;1.50;;;20.30;96.10;;;;;;5125319;27;20048;-81
2022/07/11 07:10:55;;;;;;;1.38;1.10;;;20.30;96.00;;;;;;5112550;27;20036;-78
2022/07/11 07:13:23;;;;;;;2.20;1.27;;;20.30;96.00;;;;;;5126414;27;20840;-74
2022/07/11 07:15:50;;;;;;;3.33;1.90;;;20.40;96.00;;;;;;5124965;27;20047;-74
2022/07/11 07:18:16;;;;;;;1.05;0.88;;;20.40;95.90;;;;;;5126882;27;20060;-75
2022/07/11 07:20:41;;;;;;;3.35;1.40;;;20.50;95.90;;;;;;5128502;27;20085;-74
2022/07/11 07:23:07;;;;;;;5.13;2.00;;;20.50;95.90;;;;;;5127110;27;20035;-75
2022/07/11 07:25:34;;;;;;;3.50;1.45;;;20.50;95.90;;;;;;5128774;27;20047;-74
2022/07/11 07:27:59;;;;;;;5.30;2.67;;;20.60;96.00;;;;;;5125651;27;20039;-74
2022/07/11 07:30:25;;;;;;;2.22;1.35;;;20.60;95.90;;;;;;5128148;27;20586;-75
2022/07/11 07:32:51;;;;;;;13.77;1.40;;;20.60;95.80;;;;;;5126698;27;20139;-75
2022/07/11 07:35:16;;;;;;;2.17;1.08;;;20.60;95.80;;;;;;5129114;27;20077;-75
2022/07/11 07:37:42;;;;;;;3.67;1.13;;;20.60;95.80;;;;;;5130042;27;20140;-75
2022/07/11 07:40:08;;;;;;;5.90;1.63;;;20.60;95.80;;;;;;5127041;27;20486;-74
2022/07/11 07:42:34;;;;;;;8.40;3.25;;;20.70;95.70;;;;;;5131142;27;20500;-74
2022/07/11 07:45:01;;;;;;;2.05;1.02;;;20.70;95.70;;;;;;5126600;27;20117;-74
2022/07/11 07:47:28;;;;;;;1.73;1.30;;;20.70;95.60;;;;;;5127475;27;20034;-74
2022/07/11 07:49:53;;;;;;;2.38;1.10;;;20.80;95.60;;;;;;5124972;27;20043;-74
2022/07/11 07:52:19;;;;;;;1.55;1.33;;;20.80;95.50;;;;;;5125471;27;20043;-75
2022/07/11 07:54:46;;;;;;;2.65;1.10;;;20.80;95.50;;;;;;5127134;27;20040;-74
2022/07/11 07:57:12;;;;;;;3.10;1.60;;;20.80;95.50;;;;;;5127247;27;20032;-75
2022/07/11 07:59:38;;;;;;;3.80;2.25;;;20.90;95.40;;;;;;5125673;27;20540;-75
2022/07/11 08:02:03;;;;;;;2.53;1.65;;;20.80;95.30;;;;;;5125156;27;20175;-75
2022/07/11 08:04:29;;;;;;;4.25;1.77;;;20.80;95.20;;;;;;5127689;27;20535;-74
2022/07/11 08:06:56;;;;;;;3.50;2.15;;;20.90;95.20;;;;;;5126326;27;20047;-75
2022/07/11 08:09:22;;;;;;;2.72;1.08;;;20.80;95.10;;;;;;5124337;27;20047;-75
2022/07/11 08:11:48;;;;;;;4.93;1.20;;;20.90;95.00;;;;;;5125586;27;20532;-74
2022/07/11 08:14:14;;;;;;;1.73;1.10;;;21.00;95.00;;;;;;5125578;27;20035;-74
2022/07/11 08:16:41;;;;;;;2.92;1.30;;;21.00;94.90;;;;;;5124377;27;20483;-75
2022/07/11 08:19:07;;;;;;;1.38;1.10;;;21.00;94.80;;;;;;5126288;27;20586;-75
2022/07/11 08:21:33;;;;;;;1.77;1.08;;;21.00;94.70;;;;;;5124404;27;20039;-74
2022/07/11 08:23:59;;;;;;;2.63;1.38;;;21.10;94.60;;;;;;5125685;27;20043;-74
2022/07/11 08:26:25;;;;;;;3.80;1.33;;;21.10;94.60;;;;;;5124891;27;20031;-74
2022/07/11 08:28:52;;;;;;;1.92;1.15;;;21.10;94.50;;;;;;5126158;27;20101;-74
2022/07/11 08:31:17;;;;;;;2.35;1.27;;;21.10;94.50;;;;;;5124558;27;20043;-74
2022/07/11 08:33:43;;;;;;;5.90;1.35;;;21.20;94.50;;;;;;5124689;27;20035;-74
2022/07/11 08:36:10;;;;;;;2.53;1.30;;;21.20;94.50;;;;;;5124275;27;20047;-75
2022/07/11 08:38:37;;;;;;;4.30;1.38;;;21.20;94.50;;;;;;5123954;27;20043;-74
2022/07/11 08:41:03;;;;;;;4.25;1.60;;;21.30;94.50;;;;;;5126010;27;21221;-75
2022/07/11 08:43:30;;;;;;;2.83;0.85;;;21.30;94.60;;;;;;5123623;27;20035;-74
2022/07/11 08:45:56;;;;;;;3.13;1.05;;;21.30;94.40;;;;;;5126579;27;20042;-74
2022/07/11 08:48:23;;;;;;;2.70;1.10;;;21.30;94.40;;;;;;5125109;27;20623;-74
2022/07/11 08:50:52;;;;;;;4.15;2.13;;;21.30;94.40;;;;;;5126187;27;20114;-75
2022/07/11 08:53:18;;;;;;;5.90;1.50;;;21.40;94.50;;;;;;5124219;27;20514;-74
2022/07/11 08:55:44;;;;;;;1.98;1.10;;;21.40;94.50;;;;;;5123882;27;20093;-74
2022/07/11 08:58:12;;;;;;;1.50;1.02;;;21.40;94.40;;;;;;5124554;27;20039;-74
2022/07/11 09:00:38;;;;;;;1.67;0.90;;;21.40;94.30;;;;;;5123318;27;20047;-75
2022/07/11 09:03:05;;;;;;;1.65;1.00;;;21.50;94.30;;;;;;5124964;27;20039;-74
2022/07/11 09:05:32;;;;;;;1.20;0.88;;;21.50;94.30;;;;;;5124785;27;20042;-74
2022/07/11 09:07:57;;;;;;;4.00;1.25;;;21.50;94.30;;;;;;5125725;27;20055;-74
2022/07/11 09:10:24;;;;;;;1.77;1.10;;;21.50;94.30;;;;;;5124581;27;20514;-74
2022/07/11 09:13:10;;;;;;;1.80;1.13;;;21.50;94.30;;;;;;5124047;27;20031;-74
2022/07/11 09:15:42;;;;;;;1.20;0.73;;;21.60;94.40;;;;;;5125879;27;20045;-74
2022/07/11 09:18:33;;;;;;;3.67;0.90;;;21.60;94.40;;;;;;5124445;27;20053;-75
2022/07/11 09:26:44;;;;;;;1.33;1.05;;;21.70;94.40;;;;;;5129247;27;20040;-74
2022/07/11 09:29:16;;;;;;;2.85;0.80;;;21.70;94.40;;;;;;5127052;27;20090;-74
2022/07/11 09:31:44;;;;;;;2.63;1.00;;;21.80;94.40;;;;;;5127196;27;20043;-75
2022/07/11 09:34:13;;;;;;;6.65;0.90;;;21.80;94.30;;;;;;5125716;27;20048;-74
2022/07/11 09:36:45;;;;;;;1.00;0.70;;;21.90;94.30;;;;;;5124073;27;21182;-75
2022/07/11 09:39:19;;;;;;;4.70;0.80;;;21.90;94.30;;;;;;5125631;27;20481;-75
2022/07/11 09:41:46;;;;;;;4.38;0.98;;;21.90;94.30;;;;;;5126019;27;20040;-75
2022/07/11 09:44:20;;;;;;;0.80;0.75;;;21.90;94.30;;;;;;5128130;27;20114;-75
2022/07/11 09:46:49;;;;;;;2.92;1.23;;;21.90;94.30;;;;;;5126677;27;20651;-74
2022/07/11 09:49:16;;;;;;;1.13;0.80;;;21.90;94.30;;;;;;5128836;27;20544;-74
2022/07/11 09:51:43;;;;;;;3.17;0.90;;;22.00;94.40;;;;;;5126454;27;20090;-74
2022/07/11 09:54:10;;;;;;;1.83;0.90;;;22.00;94.30;;;;;;5127122;27;20032;-74
2022/07/11 09:56:51;;;;;;;3.63;0.95;;;22.10;94.30;;;;;;5125297;27;20078;-74
2022/07/11 09:59:18;;;;;;;1.50;0.90;;;22.10;94.30;;;;;;5127967;27;20077;-74
2022/07/11 10:01:45;;;;;;;1.95;0.98;;;22.20;94.40;;;;;;5128058;27;20046;-74
2022/07/11 10:04:11;;;;;;;2.05;0.75;;;22.20;94.40;;;;;;5126624;27;20051;-74
2022/07/11 10:06:38;;;;;;;2.20;1.25;;;22.20;94.40;;;;;;5127887;27;20046;-74
2022/07/11 10:09:05;;;;;;;3.53;1.00;;;22.20;94.40;;;;;;5125678;27;20151;-74
2022/07/11 10:11:32;;;;;;;3.65;1.10;;;22.20;94.40;;;;;;5128402;27;20048;-74
2022/07/11 10:14:03;;;;;;;0.80;0.80;;;22.20;94.40;;;;;;5126248;27;20200;-74
2022/07/11 10:16:38;;;;;;;2.47;0.90;;;22.30;94.40;;;;;;5127802;27;20107;-74
2022/07/11 10:19:16;;;;;;;4.93;1.02;;;22.30;94.40;;;;;;5127858;27;20531;-74
2022/07/11 10:22:01;;;;;;;2.80;1.65;;;22.30;94.30;;;;;;5126181;27;20261;-74
2022/07/11 10:24:38;;;;;;;1.92;1.08;;;22.30;94.30;;;;;;5127439;27;20047;-74
2022/07/11 10:27:33;;;;;;;1.63;0.93;;;22.40;94.30;;;;;;5126789;27;20112;-73
2022/07/11 10:30:01;;;;;;;3.80;1.02;;;22.40;94.30;;;;;;5126843;27;20071;-74
2022/07/11 10:32:27;;;;;;;3.67;1.33;;;22.50;94.40;;;;;;5126418;27;20040;-74
2022/07/11 10:35:10;;;;;;;3.60;0.98;;;22.50;94.40;;;;;;5126321;27;20039;-74
2022/07/11 10:37:51;;;;;;;5.05;1.20;;;22.60;94.40;;;;;;5124898;27;20528;-74
2022/07/11 10:40:47;;;;;;;1.55;1.38;;;22.60;94.30;;;;;;5125671;27;20143;-74
2022/07/11 10:43:15;;;;;;;1.80;1.08;;;22.60;94.20;;;;;;5128777;27;20051;-74
2022/07/11 10:46:00;;;;;;;1.92;0.93;;;22.70;94.20;;;;;;5128235;27;20073;-74
2022/07/11 10:48:28;;;;;;;2.65;1.08;;;22.70;94.20;;;;;;5129452;27;20046;-73
2022/07/11 10:51:12;;;;;;;0.95;0.90;;;;;;;;;;5126759;27;20165;-74
2022/07/11 10:53:59;;;;;;;2.00;0.95;;;;;;;;;;5126085;27;20047;-75
2022/07/11 10:56:47;;;;;;;2.63;1.05;;;;;;;;;;5128426;27;20131;-74
2022/07/11 10:59:17;;;;;;;1.83;1.10;;;;;;;;;;5125721;27;20043;-74
2022/07/11 11:02:12;;;;;;;2.08;1.00;;;22.90;93.90;;;;;;5125790;27;20042;-74
2022/07/11 11:04:42;;;;;;;1.13;0.80;;;22.80;94.10;;;;;;5126881;27;20031;-74
2022/07/11 11:07:34;;;;;;;1.20;0.80;;;22.90;94.20;;;;;;5126629;27;20139;-74
2022/07/11 11:10:03;;;;;;;2.67;1.02;;;22.90;94.20;;;;;;5125978;27;20040;-74
2022/07/11 11:13:06;;;;;;;4.20;1.52;;;22.90;94.10;;;;;;5125557;27;20040;-74
2022/07/11 11:15:54;;;;;;;1.00;0.85;;;23.00;94.10;;;;;;5126731;27;20127;-74
2022/07/11 11:18:25;;;;;;;4.25;1.50;;;23.10;94.10;;;;;;5126258;27;20061;-74
2022/07/11 11:21:04;;;;;;;8.23;2.38;;;23.10;94.00;;;;;;5126925;27;20050;-74
2022/07/11 11:23:34;;;;;;;8.45;1.80;;;23.20;93.90;;;;;;5126649;27;20115;-74
2022/07/11 11:26:20;;;;;;;7.25;2.10;;;23.20;93.80;;;;;;5106903;27;20679;-74
2022/07/11 11:28:59;;;;;;;2.53;1.00;;;23.20;93.80;;;;;;5126217;27;20680;-74
2022/07/11 11:31:27;;;;;;;2.15;1.00;;;23.30;93.80;;;;;;5123687;27;20035;-74
2022/07/11 11:33:53;;;;;;;1.23;1.00;;;23.30;93.80;;;;;;5125048;27;20534;-74
2022/07/11 11:36:21;;;;;;;2.22;0.90;;;23.40;93.80;;;;;;5124916;27;20078;-74
2022/07/11 11:38:47;;;;;;;2.50;1.23;;;23.40;94.10;;;;;;5123834;27;20039;-74
2022/07/11 11:41:14;;;;;;;2.03;0.90;;;23.40;93.80;;;;;;5125066;27;20047;-74
2022/07/11 11:43:46;;;;;;;2.10;1.10;;;23.40;93.70;;;;;;5126295;27;20066;-74
2022/07/11 11:46:13;;;;;;;3.65;1.30;;;23.50;93.60;;;;;;5126231;27;20035;-74
2022/07/11 11:48:45;;;;;;;1.27;1.08;;;23.50;93.50;;;;;;5123157;27;20520;-74
2022/07/11 11:51:12;;;;;;;;;;;23.50;93.50;;;;;;5125813;27;20436;-74
2022/07/11 11:53:39;;;;;;;1.30;0.90;;;23.50;93.50;;;;;;5125676;27;19919;-75
2022/07/11 11:56:29;;;;;;;3.90;0.90;;;23.50;93.50;;;;;;5125349;27;20050;-74
2022/07/11 11:59:15;;;;;;;1.15;0.75;;;23.60;93.40;;;;;;5123374;27;20437;-74
2022/07/11 12:01:47;;;;;;;4.45;1.98;;;23.60;93.40;;;;;;5125035;27;20131;-74
2022/07/11 12:04:16;;;;;;;1.63;1.40;;;23.60;93.40;;;;;;5125019;27;20035;-74
2022/07/11 12:06:49;;;;;;;1.23;0.90;;;23.60;93.30;;;;;;5125629;27;20051;-75
2022/07/11 12:09:17;;;;;;;2.42;0.98;;;23.70;93.30;;;;;;5123359;27;20043;-74
2022/07/11 12:11:45;;;;;;;0.93;0.70;;;23.70;93.30;;;;;;5125079;27;21324;-74
2022/07/11 12:14:12;;;;;;;3.13;0.90;;;23.70;93.30;;;;;;5124207;27;20533;-74
2022/07/11 12:16:46;;;;;;;5.43;1.00;;;23.80;93.30;;;;;;5125226;27;20038;-71
2022/07/11 12:19:23;;;;;;;4.05;1.20;;;23.90;93.30;;;;;;5127015;27;20050;-72
2022/07/11 12:21:53;;;;;;;1.98;1.08;;;23.90;93.10;;;;;;5125842;27;20147;-72
2022/07/11 12:24:21;;;;;;;2.90;1.70;;;23.90;93.00;;;;;;5124970;27;21123;-72
2022/07/11 12:26:47;;;;;;;1.27;0.90;;;23.90;93.00;;;;;;5124526;27;20045;-72
2022/07/11 12:29:24;;;;;;;2.03;1.27;;;24.00;92.90;;;;;;5125386;27;20038;-72
2022/07/11 12:32:20;;;;;;;1.50;1.05;;;24.00;92.90;;;;;;5125138;27;20118;-72
2022/07/11 12:34:49;;;;;;;1.83;0.90;;;24.00;92.90;;;;;;5112447;27;20052;-72
2022/07/11 12:37:19;;;;;;;2.58;1.55;;;24.10;92.90;;;;;;5124864;27;20058;-72
2022/07/11 12:39:54;;;;;;;1.48;1.00;;;24.10;92.80;;;;;;5124349;27;20046;-72
2022/07/11 12:42:26;;;;;;;3.25;0.90;;;24.20;92.80;;;;;;5123621;27;20089;-72
2022/07/11 12:45:08;;;;;;;1.20;1.08;;;24.20;92.60;;;;;;5123929;27;20066;-72
2022/07/11 12:47:39;;;;;;;1.70;0.80;;;24.30;92.40;;;;;;5126072;27;20553;-72
2022/07/11 12:50:17;;;;;;;2.33;1.10;;;24.30;92.30;;;;;;5124642;27;20097;-72
2022/07/11 12:52:52;;;;;;;4.32;1.33;;;24.40;92.30;;;;;;5108204;27;20090;-72
2022/07/11 12:55:34;;;;;;;1.70;1.13;;;24.40;92.40;;;;;;5125855;27;20134;-72
2022/07/11 12:58:01;;;;;;;5.38;1.65;;;24.40;92.40;;;;;;5127843;27;20786;-72
2022/07/11 13:00:27;;;;;;;1.55;1.45;;;24.40;92.50;;;;;;5128763;27;20536;-72